Time;durP1;ratioP1;P1;durP2;ratioP2;P2;SDS_P1;SDS_P2;PMS_P1;PMS_P2;Temp;Humidity;BMP_temperature;BMP_pressure;BME280_temperature;BME280_humidity;BME280_pressure;Samples;Min_cycle;Max_cycle;Signal;HPM_P1;HPM_P2
2023/06/19 00:00:39;;;;;;;9.40;8.60;;;26.20;68.80;;;;;;5116168;28;20191;-69
2023/06/19 00:03:05;;;;;;;9.03;8.00;;;26.20;68.10;;;;;;5115776;28;20173;-70
2023/06/19 00:05:30;;;;;;;10.57;8.47;;;26.10;69.30;;;;;;5115824;28;20489;-70
2023/06/19 00:07:56;;;;;;;8.53;7.83;;;26.10;70.20;;;;;;5115294;28;20181;-70
2023/06/19 00:10:22;;;;;;;9.20;8.40;;;26.10;70.30;;;;;;5115606;28;20193;-70
2023/06/19 00:12:47;;;;;;;8.43;7.83;;;26.10;70.10;;;;;;5115558;28;20542;-70
2023/06/19 00:15:14;;;;;;;8.77;8.07;;;26.20;70.20;;;;;;5115535;28;20642;-70
2023/06/19 00:17:39;;;;;;;7.90;7.30;;;26.00;70.60;;;;;;5115738;28;20176;-71
2023/06/19 00:20:06;;;;;;;8.73;8.03;;;26.00;70.50;;;;;;5115218;28;20956;-70
2023/06/19 00:22:32;;;;;;;8.33;7.63;;;25.90;71.40;;;;;;5095389;28;20161;-70
2023/06/19 00:24:58;;;;;;;8.60;7.90;;;25.70;72.10;;;;;;5094987;28;20408;-70
2023/06/19 00:27:24;;;;;;;7.60;7.00;;;25.60;72.10;;;;;;5095102;28;20545;-70
2023/06/19 00:29:51;;;;;;;8.37;7.50;;;25.60;72.60;;;;;;5095081;28;20188;-70
2023/06/19 00:32:16;;;;;;;8.37;7.67;;;25.60;72.80;;;;;;5095112;28;20909;-70
2023/06/19 00:34:42;;;;;;;8.47;7.67;;;25.50;73.70;;;;;;5094843;28;20407;-70
2023/06/19 00:37:09;;;;;;;8.03;7.23;;;25.50;73.20;;;;;;5095590;28;20292;-70
2023/06/19 00:39:35;;;;;;;8.10;7.50;;;25.50;73.90;;;;;;5113945;28;20462;-70
2023/06/19 00:42:01;;;;;;;7.23;6.63;;;25.50;74.30;;;;;;5114976;28;20495;-70
2023/06/19 00:44:26;;;;;;;8.60;7.37;;;25.50;74.40;;;;;;5115148;28;20172;-70
2023/06/19 00:46:57;;;;;;;7.80;7.20;;;25.50;74.40;;;;;;5115073;28;20196;-70
2023/06/19 00:49:25;;;;;;;7.93;7.20;;;25.40;74.80;;;;;;5114995;28;20238;-69
2023/06/19 00:51:52;;;;;;;7.70;7.10;;;25.30;74.50;;;;;;5114234;28;20888;-70
2023/06/19 00:54:18;;;;;;;7.60;6.87;;;25.50;74.80;;;;;;5114267;28;20516;-70
2023/06/19 00:56:44;;;;;;;7.53;6.90;;;25.50;74.90;;;;;;5115250;28;21011;-70
2023/06/19 00:59:16;;;;;;;7.80;7.10;;;25.50;74.30;;;;;;5114632;28;20924;-69
2023/06/19 01:01:42;;;;;;;8.10;6.80;;;25.50;74.30;;;;;;5114593;28;20399;-71
2023/06/19 01:04:08;;;;;;;7.43;6.83;;;25.50;74.30;;;;;;5114732;28;20904;-70
2023/06/19 01:06:50;;;;;;;8.57;7.90;;;25.70;73.90;;;;;;5114889;28;20406;-70
2023/06/19 01:09:18;;;;;;;8.27;7.47;;;25.80;73.70;;;;;;5113970;28;20285;-70
2023/06/19 01:11:48;;;;;;;7.87;7.27;;;25.80;73.70;;;;;;5114658;28;20406;-70
2023/06/19 01:14:31;;;;;;;8.03;7.23;;;25.80;73.50;;;;;;5114755;28;20444;-71
2023/06/19 01:16:57;;;;;;;7.50;6.90;;;25.70;74.20;;;;;;5114566;28;20434;-70
2023/06/19 01:19:23;;;;;;;8.30;7.60;;;25.50;72.10;;;;;;5114689;28;20415;-69
2023/06/19 01:21:50;;;;;;;8.70;8.00;;;25.40;73.40;;;;;;5096024;28;20421;-71
2023/06/19 01:24:15;;;;;;;8.40;7.60;;;25.30;74.00;;;;;;5113692;28;20444;-70
2023/06/19 01:26:45;;;;;;;8.67;7.87;;;25.20;74.70;;;;;;5114216;28;20438;-70
2023/06/19 01:29:13;;;;;;;7.57;6.97;;;25.20;74.50;;;;;;5114420;28;20181;-70
2023/06/19 01:32:06;;;;;;;7.60;6.90;;;25.20;74.60;;;;;;5114543;28;20758;-70
2023/06/19 01:34:34;;;;;;;7.80;7.10;;;25.00;74.50;;;;;;5114050;28;20398;-70
2023/06/19 01:37:01;;;;;;;8.20;7.40;;;24.90;75.30;;;;;;5113705;28;20955;-70
2023/06/19 01:39:27;;;;;;;7.97;7.27;;;24.80;75.50;;;;;;5112690;28;20484;-71
2023/06/19 01:41:53;;;;;;;7.07;6.37;;;24.80;75.70;;;;;;5113977;28;20426;-69
2023/06/19 01:44:19;;;;;;;7.30;6.60;;;24.80;75.90;;;;;;5114101;28;20395;-70
2023/06/19 01:46:49;;;;;;;6.50;6.00;;;24.90;76.30;;;;;;5113803;28;20815;-70
2023/06/19 01:49:14;;;;;;;7.47;6.87;;;25.00;76.40;;;;;;5113680;28;20414;-71
2023/06/19 01:51:40;;;;;;;7.27;6.67;;;25.10;75.90;;;;;;5114161;28;20458;-70
2023/06/19 01:54:07;;;;;;;6.70;6.20;;;25.00;76.10;;;;;;5113126;28;20245;-70
2023/06/19 01:56:32;;;;;;;7.47;6.87;;;25.00;76.30;;;;;;5114097;28;20193;-70
2023/06/19 01:58:58;;;;;;;6.70;6.10;;;25.00;77.10;;;;;;5113650;28;20557;-70
2023/06/19 02:01:24;;;;;;;6.37;5.87;;;24.70;78.50;;;;;;5114104;28;20168;-70
2023/06/19 02:03:49;;;;;;;7.03;6.30;;;24.70;79.40;;;;;;5113576;28;20198;-70
2023/06/19 02:06:15;;;;;;;7.73;7.03;;;24.50;80.60;;;;;;5113720;28;20168;-70
2023/06/19 02:08:40;;;;;;;6.27;5.77;;;24.50;81.10;;;;;;5112918;28;20278;-70
2023/06/19 02:11:06;;;;;;;6.47;5.83;;;24.50;81.60;;;;;;5113885;28;20256;-70
2023/06/19 02:13:31;;;;;;;6.50;5.90;;;24.40;82.60;;;;;;5113507;28;20218;-70
2023/06/19 02:15:57;;;;;;;6.13;5.57;;;24.30;83.30;;;;;;5113427;28;20206;-70
2023/06/19 02:18:22;;;;;;;5.73;5.10;;;24.50;83.80;;;;;;5113470;28;20663;-70
2023/06/19 02:20:48;;;;;;;6.43;5.77;;;24.50;83.80;;;;;;5113580;28;20168;-70
2023/06/19 02:23:14;;;;;;;6.83;6.23;;;24.60;83.70;;;;;;5112454;28;20176;-71
2023/06/19 02:25:39;;;;;;;7.00;6.40;;;24.70;84.00;;;;;;5113570;28;20165;-70
2023/06/19 02:28:05;;;;;;;6.00;5.50;;;24.90;83.70;;;;;;5113399;28;20168;-70
2023/06/19 02:30:30;;;;;;;6.83;5.67;;;24.80;83.80;;;;;;5113645;28;20183;-70
2023/06/19 02:32:56;;;;;;;5.90;5.30;;;24.90;84.30;;;;;;5113163;28;20229;-70
2023/06/19 02:35:22;;;;;;;6.10;5.57;;;24.90;84.30;;;;;;5113168;28;20169;-70
2023/06/19 02:37:47;;;;;;;6.87;6.10;;;24.70;85.10;;;;;;5112065;28;20167;-70
2023/06/19 02:40:14;;;;;;;5.10;4.70;;;24.50;85.80;;;;;;5112568;28;20293;-70
2023/06/19 02:42:39;;;;;;;5.40;4.90;;;24.60;86.40;;;;;;5113236;28;20186;-70
2023/06/19 02:45:05;;;;;;;5.90;5.50;;;24.80;86.50;;;;;;5113550;28;20890;-70
2023/06/19 02:47:32;;;;;;;6.80;6.20;;;24.90;86.80;;;;;;5113113;28;20252;-70
2023/06/19 02:50:02;;;;;;;5.43;4.93;;;24.90;87.10;;;;;;5113080;28;20414;-70
2023/06/19 02:52:28;;;;;;;5.87;5.37;;;25.00;87.50;;;;;;5113346;28;20405;-70
2023/06/19 02:54:54;;;;;;;5.67;5.17;;;25.10;88.40;;;;;;5112992;28;20398;-70
2023/06/19 02:57:20;;;;;;;6.00;5.50;;;25.10;87.10;;;;;;5113348;28;20446;-70
2023/06/19 02:59:45;;;;;;;5.50;5.10;;;25.10;87.60;;;;;;5113009;28;20418;-70
2023/06/19 03:02:11;;;;;;;5.10;4.73;;;25.10;88.30;;;;;;5113115;28;20635;-70
2023/06/19 03:04:37;;;;;;;5.30;4.80;;;24.90;88.80;;;;;;5113011;28;20196;-70
2023/06/19 03:07:03;;;;;;;5.30;4.90;;;24.90;88.70;;;;;;5112844;28;20908;-70
2023/06/19 03:09:28;;;;;;;12.53;5.30;;;24.90;88.90;;;;;;5112301;28;20188;-70
2023/06/19 03:11:54;;;;;;;5.10;4.67;;;24.90;89.50;;;;;;5113091;28;20413;-70
2023/06/19 03:14:20;;;;;;;5.47;5.07;;;24.80;89.60;;;;;;5113011;28;20309;-69
2023/06/19 03:16:46;;;;;;;7.73;5.20;;;24.80;90.20;;;;;;5116362;28;20197;-70
2023/06/19 03:19:11;;;;;;;5.27;4.87;;;24.90;90.30;;;;;;5117200;28;20184;-71
2023/06/19 03:21:37;;;;;;;5.30;4.90;;;24.80;90.40;;;;;;5116820;28;20172;-69
2023/06/19 03:24:03;;;;;;;5.20;4.70;;;24.70;90.60;;;;;;5116074;28;20165;-70
2023/06/19 03:26:29;;;;;;;5.40;4.93;;;24.60;90.90;;;;;;5117146;28;20577;-70
2023/06/19 03:28:55;;;;;;;5.60;4.87;;;24.50;92.00;;;;;;5116427;28;20423;-70
2023/06/19 03:31:21;;;;;;;5.07;4.67;;;24.30;92.60;;;;;;5116799;28;20406;-69
2023/06/19 03:33:46;;;;;;;4.97;4.43;;;24.40;93.90;;;;;;5116557;28;20173;-70
2023/06/19 03:36:12;;;;;;;4.30;3.90;;;24.30;93.80;;;;;;5117260;28;20184;-69
2023/06/19 03:38:37;;;;;;;5.20;4.70;;;24.40;94.20;;;;;;5115296;28;20261;-70
2023/06/19 03:41:03;;;;;;;4.50;4.10;;;24.30;93.30;;;;;;5116677;28;20565;-69
2023/06/19 03:43:28;;;;;;;4.77;4.47;;;24.30;93.60;;;;;;5116507;28;20160;-70
2023/06/19 03:45:54;;;;;;;3.93;3.63;;;24.20;94.00;;;;;;5116537;28;20511;-70
2023/06/19 03:48:19;;;;;;;4.47;4.07;;;24.40;95.40;;;;;;5115943;28;20186;-70
2023/06/19 03:50:45;;;;;;;4.10;3.77;;;24.40;97.30;;;;;;5116420;28;20279;-69
2023/06/19 03:53:11;;;;;;;5.70;4.40;;;24.00;96.00;;;;;;5116262;28;20204;-69
2023/06/19 03:55:36;;;;;;;4.47;3.87;;;24.00;97.40;;;;;;5116212;28;20536;-70
2023/06/19 03:58:02;;;;;;;3.60;3.30;;;23.90;98.00;;;;;;5116113;28;20169;-70
2023/06/19 04:00:28;;;;;;;4.40;4.00;;;23.70;98.40;;;;;;5116185;28;20587;-69
2023/06/19 04:02:53;;;;;;;4.40;4.00;;;23.60;98.70;;;;;;5116390;28;20192;-69
2023/06/19 04:05:22;;;;;;;4.57;3.70;;;23.60;99.30;;;;;;5115974;28;20214;-70
2023/06/19 04:07:48;;;;;;;3.67;3.37;;;23.60;99.30;;;;;;5115613;28;20188;-69
2023/06/19 04:10:13;;;;;;;4.10;3.70;;;23.70;99.80;;;;;;5115599;28;20418;-69
2023/06/19 04:12:40;;;;;;;4.40;3.50;;;23.60;99.30;;;;;;5115673;28;20161;-69
2023/06/19 04:15:09;;;;;;;4.20;3.80;;;23.30;99.80;;;;;;5115617;28;20169;-69
2023/06/19 04:17:35;;;;;;;3.93;3.63;;;23.30;99.90;;;;;;5115809;28;20429;-70
2023/06/19 04:20:01;;;;;;;4.10;3.70;;;23.50;99.90;;;;;;5116065;28;20415;-70
2023/06/19 04:22:26;;;;;;;4.10;3.80;;;23.60;99.90;;;;;;5115552;28;20460;-70
2023/06/19 04:24:52;;;;;;;4.30;3.90;;;23.70;99.90;;;;;;5114951;28;20221;-69
2023/06/19 04:27:17;;;;;;;4.40;4.00;;;23.60;99.90;;;;;;5114120;28;20169;-70
2023/06/19 04:29:44;;;;;;;4.27;3.87;;;23.60;99.90;;;;;;5115413;28;20188;-70
2023/06/19 04:32:12;;;;;;;5.67;3.70;;;23.70;99.90;;;;;;5115525;28;20662;-70
2023/06/19 04:34:38;;;;;;;5.17;4.67;;;23.60;99.90;;;;;;5115294;28;20509;-69
2023/06/19 04:37:05;;;;;;;4.13;3.80;;;23.50;99.90;;;;;;5115162;28;20453;-69
2023/06/19 04:39:30;;;;;;;4.70;4.10;;;23.40;99.90;;;;;;5113869;28;20453;-71
2023/06/19 04:41:56;;;;;;;3.97;3.67;;;23.30;99.90;;;;;;5115392;28;20399;-69
2023/06/19 04:44:21;;;;;;;4.00;3.60;;;23.50;99.90;;;;;;5115466;28;20195;-69
2023/06/19 04:46:47;;;;;;;4.33;3.90;;;23.50;99.90;;;;;;5115403;28;20175;-70
2023/06/19 04:49:13;;;;;;;4.20;3.90;;;23.60;99.90;;;;;;5115160;28;20258;-69
2023/06/19 04:51:40;;;;;;;4.00;3.70;;;23.60;99.90;;;;;;5114862;28;20415;-69
2023/06/19 04:54:06;;;;;;;4.90;3.47;;;23.60;99.90;;;;;;5114586;28;20168;-69
2023/06/19 04:56:32;;;;;;;3.73;3.43;;;23.90;99.90;;;;;;5115395;28;20527;-70
2023/06/19 04:58:59;;;;;;;4.20;3.80;;;24.10;99.90;;;;;;5114719;28;20187;-69
2023/06/19 05:01:28;;;;;;;3.63;3.33;;;24.10;99.90;;;;;;5114806;28;20477;-69
2023/06/19 05:03:54;;;;;;;4.20;3.40;;;24.10;99.90;;;;;;5096584;28;20419;-70
2023/06/19 05:06:21;;;;;;;3.63;3.33;;;24.30;99.90;;;;;;5114789;28;20411;-69
2023/06/19 05:08:47;;;;;;;3.70;3.40;;;24.40;99.90;;;;;;5114569;28;20799;-69
2023/06/19 05:11:13;;;;;;;3.50;3.20;;;24.20;99.90;;;;;;5114608;28;20399;-69
2023/06/19 05:13:38;;;;;;;3.50;3.20;;;24.30;99.90;;;;;;5114679;28;20164;-70
2023/06/19 05:16:04;;;;;;;3.67;3.30;;;24.00;99.90;;;;;;5114855;28;20188;-69
2023/06/19 05:18:30;;;;;;;3.80;3.50;;;24.00;99.90;;;;;;5114657;28;20172;-69
2023/06/19 05:20:56;;;;;;;3.87;3.37;;;24.30;99.90;;;;;;5115162;28;20524;-69
2023/06/19 05:23:22;;;;;;;3.53;3.23;;;24.40;99.90;;;;;;5114189;28;20176;-70
2023/06/19 05:25:48;;;;;;;4.53;4.00;;;24.50;99.90;;;;;;5114456;28;20410;-70
2023/06/19 05:28:13;;;;;;;3.60;3.40;;;24.30;99.90;;;;;;5114260;28;20161;-70
2023/06/19 05:30:39;;;;;;;3.67;3.37;;;24.40;99.90;;;;;;5114274;28;20172;-70
2023/06/19 05:33:04;;;;;;;3.50;3.20;;;24.50;99.90;;;;;;5114730;28;20623;-70
2023/06/19 05:35:30;;;;;;;3.60;3.30;;;24.50;99.90;;;;;;5114540;28;20192;-70
2023/06/19 05:37:56;;;;;;;3.23;2.93;;;24.60;99.90;;;;;;5112629;28;20176;-70
2023/06/19 05:40:21;;;;;;;6.50;3.13;;;24.50;99.90;;;;;;5135428;22;20281;-73
2023/06/19 05:42:47;;;;;;;3.00;2.80;;;24.50;99.90;;;;;;5114818;28;20165;-73
2023/06/19 05:45:13;;;;;;;3.73;3.43;;;24.20;99.90;;;;;;5114662;28;20188;-73
2023/06/19 05:47:38;;;;;;;4.10;3.70;;;24.40;99.90;;;;;;5115399;28;20645;-74
2023/06/19 05:50:04;;;;;;;3.40;3.20;;;24.60;99.90;;;;;;5115264;28;20184;-74
2023/06/19 05:52:30;;;;;;;3.20;2.90;;;24.80;99.90;;;;;;5116408;28;20189;-72
2023/06/19 05:54:57;;;;;;;5.93;3.77;;;24.90;99.90;;;;;;5114975;28;20405;-74
2023/06/19 05:57:23;;;;;;;3.50;3.20;;;25.00;99.90;;;;;;5115438;28;20226;-73
2023/06/19 05:59:49;;;;;;;5.20;4.20;;;25.20;99.90;;;;;;5115162;28;20859;-73
2023/06/19 06:02:15;;;;;;;4.10;3.70;;;25.30;99.90;;;;;;5115897;28;20195;-73
2023/06/19 06:04:41;;;;;;;4.27;3.87;;;25.00;99.90;;;;;;5096455;28;20241;-73
2023/06/19 06:07:06;;;;;;;3.90;3.60;;;24.80;99.90;;;;;;5117990;28;20156;-73
2023/06/19 06:09:32;;;;;;;5.07;4.40;;;24.80;99.90;;;;;;5113195;28;20193;-73
2023/06/19 06:11:58;;;;;;;4.20;3.87;;;25.00;99.90;;;;;;5114171;28;20177;-73
2023/06/19 06:14:25;;;;;;;7.00;4.13;;;25.10;99.90;;;;;;5114160;28;20406;-73
2023/06/19 06:16:51;;;;;;;3.90;3.60;;;25.20;99.90;;;;;;5115476;28;20496;-72
2023/06/19 06:19:16;;;;;;;4.77;3.27;;;25.40;99.90;;;;;;5114237;28;20422;-73
2023/06/19 06:21:42;;;;;;;3.70;3.40;;;25.50;99.90;;;;;;5115012;28;20209;-72
2023/06/19 06:24:07;;;;;;;3.60;3.30;;;25.40;99.90;;;;;;5114417;28;20173;-73
2023/06/19 06:26:33;;;;;;;3.57;3.27;;;25.20;99.90;;;;;;5117284;28;20243;-73
2023/06/19 06:28:58;;;;;;;3.77;3.47;;;25.40;99.90;;;;;;5119012;28;20168;-73
2023/06/19 06:31:24;;;;;;;4.00;3.70;;;25.40;99.90;;;;;;5120236;28;20173;-71
2023/06/19 06:33:50;;;;;;;3.30;3.00;;;25.50;99.90;;;;;;5131987;28;20468;-73
2023/06/19 06:36:16;;;;;;;9.13;4.00;;;25.50;99.90;;;;;;5131109;28;20232;-72
2023/06/19 06:38:41;;;;;;;3.47;3.17;;;25.50;99.90;;;;;;5130199;28;20184;-73
2023/06/19 06:41:08;;;;;;;3.93;3.57;;;25.40;99.90;;;;;;5132444;28;20208;-73
2023/06/19 06:43:33;;;;;;;4.20;3.03;;;25.70;99.90;;;;;;5135036;28;20186;-73
2023/06/19 06:45:59;;;;;;;3.10;2.80;;;25.70;99.90;;;;;;5117640;28;20395;-72
2023/06/19 06:48:25;;;;;;;2.80;2.60;;;25.70;99.90;;;;;;5135457;28;20237;-73
2023/06/19 06:50:52;;;;;;;3.03;2.73;;;25.90;99.40;;;;;;5137267;28;20177;-72
2023/06/19 06:53:18;;;;;;;4.17;3.00;;;26.00;98.80;;;;;;5139306;28;20164;-73
2023/06/19 06:55:43;;;;;;;3.37;2.80;;;26.20;98.80;;;;;;5133284;28;20848;-73
2023/06/19 06:58:09;;;;;;;2.70;2.47;;;26.40;98.30;;;;;;5118037;28;20169;-73
2023/06/19 07:00:34;;;;;;;3.57;2.60;;;26.70;97.60;;;;;;5116715;28;20184;-73
2023/06/19 07:03:00;;;;;;;2.60;2.40;;;26.30;97.40;;;;;;5118157;28;20693;-73
2023/06/19 07:05:25;;;;;;;2.73;2.53;;;26.30;97.60;;;;;;5118218;28;20259;-73
2023/06/19 07:07:51;;;;;;;2.90;2.70;;;26.30;98.00;;;;;;5118147;28;20696;-74
2023/06/19 07:10:17;;;;;;;3.23;2.93;;;26.50;98.10;;;;;;5118076;28;20185;-73
2023/06/19 07:12:47;;;;;;;2.97;2.77;;;26.50;97.40;;;;;;5117553;28;20160;-73
2023/06/19 07:15:12;;;;;;;2.67;2.47;;;26.10;97.60;;;;;;5116913;28;20255;-73
2023/06/19 07:17:38;;;;;;;2.70;2.50;;;26.10;97.20;;;;;;5117826;28;20529;-74
2023/06/19 07:20:04;;;;;;;2.50;2.13;;;26.00;97.70;;;;;;5119934;28;20191;-74
2023/06/19 07:22:30;;;;;;;2.80;2.60;;;26.40;97.30;;;;;;5117926;28;20678;-74
2023/06/19 07:24:56;;;;;;;3.03;2.83;;;26.60;97.10;;;;;;5117909;28;20406;-73
2023/06/19 07:27:21;;;;;;;2.57;2.33;;;26.50;96.90;;;;;;5117879;28;20176;-73
2023/06/19 07:29:47;;;;;;;3.70;2.10;;;26.30;96.60;;;;;;5099698;28;20217;-74
2023/06/19 07:32:13;;;;;;;2.73;2.40;;;26.30;97.60;;;;;;5117315;28;20398;-73
2023/06/19 07:34:39;;;;;;;2.40;2.20;;;26.30;97.00;;;;;;5117133;28;20199;-73
2023/06/19 07:37:04;;;;;;;2.70;2.50;;;26.30;96.80;;;;;;5117098;28;20195;-73
2023/06/19 07:39:31;;;;;;;3.57;2.87;;;26.40;96.10;;;;;;5116081;28;20214;-73
2023/06/19 07:41:56;;;;;;;3.73;3.40;;;26.40;96.00;;;;;;5116539;28;20167;-73
2023/06/19 07:44:22;;;;;;;2.83;2.63;;;26.50;96.10;;;;;;5116331;28;20833;-73
2023/06/19 07:46:47;;;;;;;3.87;2.93;;;26.60;96.00;;;;;;5117595;28;20537;-73
2023/06/19 07:49:13;;;;;;;2.80;2.60;;;26.70;95.70;;;;;;5116827;28;20219;-74
2023/06/19 07:51:38;;;;;;;3.17;2.93;;;27.30;95.30;;;;;;5116618;28;20169;-73
2023/06/19 07:54:04;;;;;;;2.60;2.40;;;27.30;94.60;;;;;;5116769;28;20221;-74
2023/06/19 07:56:29;;;;;;;4.63;2.57;;;27.00;94.70;;;;;;5116274;28;20192;-73
2023/06/19 07:58:55;;;;;;;2.90;2.60;;;27.10;94.90;;;;;;5115886;28;20192;-73
2023/06/19 08:01:21;;;;;;;2.73;2.53;;;27.30;95.00;;;;;;5115680;28;20229;-74
2023/06/19 08:03:46;;;;;;;5.60;3.10;;;27.50;94.60;;;;;;5116853;28;20165;-73
2023/06/19 08:06:12;;;;;;;4.60;3.00;;;27.70;94.30;;;;;;5098130;28;20172;-73
2023/06/19 08:08:37;;;;;;;7.60;3.00;;;27.50;94.10;;;;;;5116106;28;20177;-73
2023/06/19 08:11:03;;;;;;;3.00;2.60;;;27.50;94.30;;;;;;5116339;28;20214;-73
2023/06/19 08:13:28;;;;;;;3.57;3.23;;;27.60;94.40;;;;;;5116417;28;20568;-72
2023/06/19 08:15:54;;;;;;;3.90;3.60;;;27.40;94.40;;;;;;5115902;28;20191;-73
2023/06/19 08:18:20;;;;;;;4.60;2.73;;;27.50;94.70;;;;;;5116067;28;20156;-73
2023/06/19 08:20:45;;;;;;;3.17;2.97;;;27.40;94.00;;;;;;5115799;28;20528;-74
2023/06/19 08:23:11;;;;;;;3.93;3.63;;;27.00;94.20;;;;;;5116241;28;20235;-74
2023/06/19 08:25:36;;;;;;;2.70;2.50;;;27.00;94.60;;;;;;5115518;28;20651;-74
2023/06/19 08:28:02;;;;;;;3.70;3.40;;;27.20;94.80;;;;;;5116028;28;20173;-74
2023/06/19 08:30:27;;;;;;;3.00;2.80;;;27.40;94.70;;;;;;5115184;28;20731;-75
2023/06/19 08:32:53;;;;;;;4.13;3.23;;;27.40;93.90;;;;;;5115423;28;20169;-74
2023/06/19 08:35:19;;;;;;;3.10;2.90;;;27.20;94.00;;;;;;5115355;28;20172;-73
2023/06/19 08:37:44;;;;;;;3.80;3.00;;;27.10;93.90;;;;;;5114626;28;20169;-73
2023/06/19 08:40:11;;;;;;;3.40;3.10;;;26.90;94.30;;;;;;5096690;28;20208;-73
2023/06/19 08:42:38;;;;;;;3.37;3.07;;;26.90;94.70;;;;;;5115354;28;20165;-73
2023/06/19 08:45:06;;;;;;;5.50;3.30;;;26.80;94.60;;;;;;5115710;28;20742;-73
2023/06/19 08:47:33;;;;;;;3.60;3.23;;;27.00;94.60;;;;;;5115055;28;20402;-73
2023/06/19 08:49:59;;;;;;;4.37;3.97;;;26.90;95.10;;;;;;5115000;28;20423;-73
2023/06/19 08:52:24;;;;;;;3.53;2.90;;;26.80;94.80;;;;;;5115300;28;20406;-73
2023/06/19 08:54:50;;;;;;;4.60;2.53;;;26.80;94.80;;;;;;5115252;28;20169;-73
2023/06/19 08:57:16;;;;;;;3.20;3.00;;;26.90;94.50;;;;;;5115732;28;20237;-73
2023/06/19 08:59:49;;;;;;;3.20;2.90;;;26.90;94.10;;;;;;5115035;28;20191;-73
2023/06/19 09:02:14;;;;;;;3.57;3.27;;;27.00;94.50;;;;;;5115223;28;20158;-73
2023/06/19 09:04:40;;;;;;;11.23;3.60;;;27.00;94.30;;;;;;5115156;28;20471;-74
2023/06/19 09:07:07;;;;;;;2.83;2.63;;;27.10;94.10;;;;;;5114816;28;20522;-74
2023/06/19 09:09:33;;;;;;;5.90;3.00;;;27.30;94.40;;;;;;5114679;28;20572;-74
2023/06/19 09:12:07;;;;;;;3.57;2.90;;;27.60;93.50;;;;;;5114882;28;20406;-73
2023/06/19 09:14:37;;;;;;;3.20;2.90;;;27.70;93.40;;;;;;5114472;28;20575;-74
2023/06/19 09:17:05;;;;;;;2.67;2.47;;;27.90;92.50;;;;;;5114599;28;20526;-73
2023/06/19 09:19:31;;;;;;;3.73;2.80;;;27.70;92.60;;;;;;5114657;28;20429;-73
2023/06/19 09:22:05;;;;;;;3.37;3.17;;;27.80;93.00;;;;;;5114538;28;20407;-74
2023/06/19 09:24:39;;;;;;;4.10;2.60;;;27.90;92.30;;;;;;5114519;28;20386;-73
2023/06/19 09:27:13;;;;;;;3.40;3.10;;;27.90;92.20;;;;;;5114693;28;20448;-73
2023/06/19 09:29:39;;;;;;;2.90;2.70;;;28.00;91.60;;;;;;5114131;28;20434;-73
2023/06/19 09:32:18;;;;;;;3.43;3.17;;;28.10;91.30;;;;;;5096915;28;20860;-73
2023/06/19 09:34:44;;;;;;;2.90;2.60;;;28.20;90.90;;;;;;5114455;28;20904;-74
2023/06/19 09:37:10;;;;;;;3.00;2.80;;;28.60;91.20;;;;;;5114010;28;20457;-74
2023/06/19 09:39:39;;;;;;;3.17;2.67;;;29.10;90.00;;;;;;5113212;28;20201;-74
2023/06/19 09:42:09;;;;;;;3.10;2.73;;;29.00;90.00;;;;;;5114469;28;20455;-74
2023/06/19 09:44:42;;;;;;;2.70;2.50;;;28.80;90.30;;;;;;5114970;28;20405;-73
2023/06/19 09:47:20;;;;;;;3.50;3.20;;;28.80;90.10;;;;;;5114665;28;20410;-75
2023/06/19 09:49:54;;;;;;;3.03;2.73;;;28.70;90.10;;;;;;5115322;28;20429;-74
2023/06/19 09:52:22;;;;;;;3.00;2.57;;;28.50;89.70;;;;;;5114641;28;20853;-74
2023/06/19 09:54:51;;;;;;;3.13;2.93;;;28.40;90.10;;;;;;5113966;28;20438;-74
2023/06/19 09:57:18;;;;;;;4.10;3.03;;;28.70;90.40;;;;;;5114526;28;20482;-75
2023/06/19 09:59:52;;;;;;;3.93;3.53;;;29.20;90.80;;;;;;5113425;28;20446;-74
2023/06/19 10:02:20;;;;;;;4.40;2.97;;;29.30;90.40;;;;;;5114522;28;20471;-74
2023/06/19 10:04:51;;;;;;;3.77;3.37;;;28.90;91.00;;;;;;5113916;28;20816;-74
2023/06/19 10:07:21;;;;;;;4.07;3.77;;;28.70;91.00;;;;;;5114099;28;20441;-75
2023/06/19 10:09:56;;;;;;;3.97;3.67;;;28.70;91.30;;;;;;5113556;28;20454;-75
2023/06/19 10:12:22;;;;;;;3.33;3.13;;;28.70;91.20;;;;;;5113811;28;20433;-75
2023/06/19 10:14:49;;;;;;;4.20;3.90;;;28.60;91.20;;;;;;5113490;28;20410;-75
2023/06/19 10:17:17;;;;;;;6.17;2.97;;;28.50;91.40;;;;;;5113936;28;20674;-75
2023/06/19 10:19:50;;;;;;;3.30;3.10;;;28.80;91.00;;;;;;5114155;28;20888;-74
2023/06/19 10:22:21;;;;;;;4.83;3.30;;;28.50;90.70;;;;;;5114101;28;20479;-74
2023/06/19 10:24:50;;;;;;;5.03;3.43;;;28.80;90.90;;;;;;5113516;28;20795;-75
2023/06/19 10:27:22;;;;;;;3.57;3.27;;;28.90;90.50;;;;;;5113897;28;20403;-75
2023/06/19 10:29:53;;;;;;;5.77;3.87;;;28.80;90.70;;;;;;5112947;28;20434;-75
2023/06/19 10:32:19;;;;;;;3.70;3.47;;;29.10;90.40;;;;;;5115003;28;20399;-75
2023/06/19 10:34:50;;;;;;;4.03;3.63;;;29.20;89.80;;;;;;5116111;28;20402;-75
2023/06/19 10:37:16;;;;;;;3.80;3.50;;;29.30;88.90;;;;;;5115961;28;20222;-74
2023/06/19 10:39:43;;;;;;;4.50;4.10;;;29.50;89.60;;;;;;5113546;28;21024;-75
2023/06/19 10:42:10;;;;;;;5.43;3.93;;;29.60;90.40;;;;;;5115061;28;20190;-74
2023/06/19 10:44:41;;;;;;;4.67;3.70;;;29.50;90.70;;;;;;5113351;28;20398;-74
2023/06/19 10:47:07;;;;;;;4.30;3.90;;;29.30;90.70;;;;;;5113956;28;20393;-76
2023/06/19 10:49:33;;;;;;;3.77;3.50;;;29.30;90.70;;;;;;5113807;28;20996;-74
2023/06/19 10:52:00;;;;;;;6.17;3.67;;;29.50;90.60;;;;;;5113564;28;20172;-74
2023/06/19 10:54:27;;;;;;;4.00;3.70;;;29.40;90.60;;;;;;5113087;28;20188;-75
2023/06/19 10:56:54;;;;;;;4.40;4.00;;;29.20;91.00;;;;;;5113814;28;20510;-75
2023/06/19 10:59:20;;;;;;;4.50;4.10;;;29.10;91.30;;;;;;5113554;28;20427;-72
2023/06/19 11:01:46;;;;;;;4.13;3.83;;;28.80;91.50;;;;;;5113703;28;20402;-72
2023/06/19 11:04:13;;;;;;;4.13;3.73;;;28.50;92.20;;;;;;5113361;28;20165;-74
2023/06/19 11:06:40;;;;;;;4.23;3.90;;;28.50;92.30;;;;;;5113751;28;20409;-74
2023/06/19 11:09:07;;;;;;;4.00;3.70;;;28.80;92.40;;;;;;5112651;28;20434;-74
2023/06/19 11:11:41;;;;;;;4.60;3.40;;;29.30;91.20;;;;;;5119451;28;20417;-74
2023/06/19 11:14:08;;;;;;;4.47;4.17;;;29.50;90.70;;;;;;5113377;28;20407;-74
2023/06/19 11:16:37;;;;;;;6.50;4.83;;;29.40;91.10;;;;;;5113417;28;20460;-74
2023/06/19 11:19:03;;;;;;;5.03;4.57;;;29.80;91.00;;;;;;5113226;28;20417;-75
2023/06/19 11:21:38;;;;;;;4.90;3.50;;;29.70;90.50;;;;;;5113091;28;20403;-75
2023/06/19 11:24:06;;;;;;;4.30;3.90;;;29.40;91.00;;;;;;5112627;28;20416;-74
2023/06/19 11:26:50;;;;;;;4.77;4.33;;;29.70;90.30;;;;;;5113382;28;20407;-74
2023/06/19 11:29:21;;;;;;;5.10;4.60;;;30.50;90.20;;;;;;5113111;28;20438;-74
2023/06/19 11:31:47;;;;;;;3.90;3.60;;;30.50;89.80;;;;;;5113312;28;20387;-73
2023/06/19 11:34:14;;;;;;;4.43;3.90;;;30.80;87.80;;;;;;5112734;28;20406;-74
2023/06/19 11:36:40;;;;;;;3.87;3.47;;;31.60;85.50;;;;;;5114862;28;20848;-72
2023/06/19 11:41:37;;;;;;;3.57;3.30;;;32.80;81.40;;;;;;5093112;28;20459;-71
2023/06/19 11:44:10;;;;;;;3.13;2.93;;;33.30;78.70;;;;;;5095566;28;20924;-71
2023/06/19 11:46:36;;;;;;;4.07;3.67;;;34.00;76.40;;;;;;5094996;28;20248;-71
2023/06/19 11:49:13;;;;;;;3.77;3.47;;;34.60;74.90;;;;;;5095409;28;20446;-71
2023/06/19 11:51:39;;;;;;;4.80;3.90;;;35.20;72.60;;;;;;5091311;28;20253;-71
2023/06/19 11:54:07;;;;;;;4.30;4.00;;;34.60;71.70;;;;;;5074563;28;20840;-71
2023/06/19 11:56:32;;;;;;;4.03;3.73;;;34.30;72.50;;;;;;5073578;28;20240;-71
2023/06/19 11:58:58;;;;;;;4.07;3.30;;;34.70;71.70;;;;;;5075316;28;20416;-72
2023/06/19 12:01:23;;;;;;;4.17;3.87;;;35.00;69.30;;;;;;5074979;28;20201;-72
2023/06/19 12:03:49;;;;;;;4.20;3.90;;;35.10;68.30;;;;;;5075095;28;20628;-71
2023/06/19 12:06:17;;;;;;;3.67;3.37;;;35.60;67.60;;;;;;5075001;28;20581;-71
2023/06/19 12:08:43;;;;;;;3.63;3.33;;;35.90;66.30;;;;;;5074134;28;20185;-71
2023/06/19 12:11:10;;;;;;;3.67;3.37;;;34.70;67.40;;;;;;5074844;28;20420;-71
2023/06/19 12:13:36;;;;;;;3.60;3.30;;;34.40;68.80;;;;;;5074599;28;20248;-71
2023/06/19 12:16:01;;;;;;;4.00;3.60;;;34.20;68.80;;;;;;5074862;28;20596;-71
2023/06/19 12:18:27;;;;;;;4.17;3.40;;;33.50;70.50;;;;;;5074644;28;20778;-71
2023/06/19 12:20:52;;;;;;;3.77;3.50;;;33.20;70.60;;;;;;5074547;28;20182;-71
2023/06/19 12:23:19;;;;;;;3.40;3.10;;;33.90;69.80;;;;;;5073789;28;20782;-71
2023/06/19 12:25:44;;;;;;;3.70;3.40;;;34.90;68.20;;;;;;5074276;28;20628;-71
2023/06/19 12:28:11;;;;;;;4.63;4.20;;;35.70;64.70;;;;;;5074531;28;20401;-71
2023/06/19 12:30:37;;;;;;;4.53;3.37;;;34.70;66.90;;;;;;5074448;28;20529;-71
2023/06/19 12:33:03;;;;;;;4.80;3.70;;;34.30;68.00;;;;;;5074374;28;20404;-72
2023/06/19 12:35:29;;;;;;;4.37;3.97;;;35.00;66.40;;;;;;5074110;28;20170;-71
2023/06/19 12:37:55;;;;;;;3.57;3.27;;;33.70;69.00;;;;;;5073546;28;20782;-71
2023/06/19 12:40:20;;;;;;;10.30;3.50;;;34.50;67.80;;;;;;5073999;28;20280;-71
2023/06/19 12:42:46;;;;;;;4.23;3.83;;;35.60;65.10;;;;;;5074110;28;20158;-72
2023/06/19 12:45:12;;;;;;;4.00;3.70;;;36.30;63.70;;;;;;5073776;28;20510;-72